• Join FlightAware (Why Join?)
  • Login
  • US Flag 
05:04AM EDT


 

Airport Tracker/Info


-or-


 

Live Flight TrackerFlight Track Log ✈ DAL3606 ✈ 03-May-2013 ✈ KATL - KIAD

Flight Track Log - Related Links

Times and Time Zones

All times are in EDT time to prevent confusion due to time zone crossing. See the DAL3606 flight status page for this flight to view local times or setup timezone preferences in your user account.

Time Position Orientation Groundspeed Altitude Reporting Facility
EDT Latitude Longitude Course Direction KTS MPH feet Rate Location/Type
08:58AM 33.6333 -84.3833 53° Northeast 143 165 3,300  Level Atlanta TRACON
08:59AM 33.6333 -84.3167 90° East 232 267 5,200 2,400 Climbing Atlanta TRACON
09:00AM 33.8788 -84.1402 54° Northeast  Level Estimated
09:00AM 33.6333 -84.2333 90° East 249 287 8,100  Level Atlanta TRACON
09:01AM 33.8742 -84.0036 92° East  Level FlightAware Approximate
09:01AM 33.6356 -84.1111 89° East 275 316 10,700  Level Atlanta Center
09:02AM 33.8696 -83.8671 92° East  Level FlightAware Approximate
09:02AM 33.6919 -84.0264 51° Northeast 299 344 12,500  Level Atlanta Center
09:03AM 33.9518 -83.7729 53° Northeast  Level Estimated
09:03AM 33.7586 -83.9439 46° Northeast 327 376 14,100  Level Atlanta Center
09:04AM 33.8253 -83.8536 48° Northeast 353 406 15,500 1,440 Climbing Atlanta Center
09:05AM 33.8961 -83.7611 47° Northeast 365 420 17,000 1,440 Climbing Atlanta Center
09:06AM 33.9711 -83.6581 49° Northeast 373 429 18,400 1,140 Climbing Atlanta Center
09:07AM 34.0333 -83.5525 55° Northeast 378 435 19,300 900 Climbing Atlanta Center
09:08AM 34.0997 -83.4517 51° Northeast 383 441 20,200 720 Climbing Atlanta Center
09:09AM 34.1681 -83.3408 53° Northeast 389 448 20,800 540 Climbing Atlanta Center
09:10AM 34.2319 -83.2372 53° Northeast 389 448 21,300 480 Climbing Atlanta Center
09:11AM 34.3044 -83.1286 51° Northeast 394 453 21,800 480 Climbing Atlanta Center
09:12AM 34.3722 -83.0169 54° Northeast 401 461 22,300 480 Climbing Atlanta Center
09:13AM 34.4381 -82.9028 55° Northeast 406 467 22,800 540 Climbing Atlanta Center
09:14AM 34.5100 -82.7908 52° Northeast 412 474 23,400 540 Climbing Atlanta Center
09:15AM 34.5819 -82.6764 53° Northeast 422 486 23,900 420 Climbing Atlanta Center
09:16AM 34.6453 -82.5744 53° Northeast 413 475 24,300 1,500 Climbing Atlanta Center
09:17AM 34.7150 -82.4569 54° Northeast 425 489 27,000 480 Climbing Atlanta Center
09:18AM 34.7883 -82.3342 54° Northeast 431 496 25,300 -600 Descending Atlanta Center
09:19AM 34.8639 -82.2111 53° Northeast 436 502 25,800 480 Climbing Atlanta Center
09:20AM 34.9472 -82.0800 52° Northeast 441 507 26,300 540 Climbing Atlanta Center
09:21AM 35.0225 -81.9539 54° Northeast 447 514 26,900 300 Climbing Atlanta Center
09:22AM 35.0911 -81.8228 57° Northeast 458 527 27,000  Climbing Atlanta Center
09:23AM 35.1617 -81.6886 57° Northeast 466 536 27,000  Level Atlanta Center
09:24AM 35.2342 -81.5519 57° Northeast 476 548 27,000  Level Atlanta Center
09:25AM 35.3083 -81.4122 57° Northeast 484 557 27,000  Level Atlanta Center
09:26AM 35.3783 -81.2750 58° Northeast 484 557 27,000  Level Atlanta Center
09:27AM 35.4522 -81.1350 57° Northeast 492 566 27,000  Level Atlanta Center
09:28AM 35.5219 -80.9972 58° Northeast 487 560 27,000  Level Atlanta Center
09:29AM 35.5958 -80.8617 56° Northeast 482 555 27,000  Level Atlanta Center
09:30AM 35.6653 -80.7261 58° Northeast 477 549 27,000  Level Atlanta Center
09:31AM 35.7344 -80.5903 58° Northeast 471 542 27,000  Level Atlanta Center
09:32AM 35.8056 -80.4514 58° Northeast 471 542 27,000  Level Atlanta Center
09:33AM 35.8747 -80.3178 57° Northeast 471 542 27,000  Level Atlanta Center
09:34AM 35.9414 -80.1789 59° Northeast 465 535 27,000  Level Atlanta Center
09:36AM 36.0997 -79.8878 56° Northeast 484 557 27,000  Level Washington Center
09:37AM 36.1733 -79.7528 56° Northeast 477 549 27,000  Level Washington Center
09:39AM 36.2422 -79.6328 55° Northeast 477 549 27,000 -480 Level Washington Center
09:40AM 36.3267 -79.4825 55° Northeast 477 549 26,100 -1,020 Descending Washington Center
09:40AM 36.3928 -79.3644 55° Northeast 477 549 25,000 -600 Descending Washington Center
09:42AM 36.4636 -79.2336 56° Northeast 471 542 25,000  Level Washington Center
09:43AM 36.5472 -79.0953 53° Northeast 461 531 25,000  Level Washington Center
09:43AM 36.6197 -78.9639 55° Northeast 461 531 25,000  Level Washington Center
09:44AM 36.6903 -78.8272 57° Northeast 461 531 25,000  Level Washington Center
09:46AM 36.7625 -78.6981 55° Northeast 461 531 25,000  Level Washington Center
09:46AM 36.8283 -78.5786 55° Northeast 461 531 25,000  Level Washington Center
09:47AM 36.8981 -78.4489 56° Northeast 461 531 25,000 -240 Level Washington Center
09:48AM 36.9964 -78.3458 40° Northeast 455 524 24,600 -480 Descending Washington Center
09:50AM 37.0989 -78.2506 37° Northeast 445 512 24,100 -540 Descending Washington Center
09:51AM 37.1861 -78.1650 38° Northeast 445 512 23,600 -540 Descending Washington Center
09:52AM 37.2928 -78.0614 38° Northeast 445 512 23,100 -540 Descending Washington Center
09:52AM 37.3886 -77.9653 39° Northeast 440 506 22,600 -540 Descending Washington Center
09:53AM 37.4864 -77.8714 37° Northeast 440 506 22,100 -300 Descending Washington Center
09:54AM 37.5878 -77.7933 31° Northeast 440 506 22,000 -960 Descending Washington Center
09:56AM 37.6953 -77.7333 24° Northeast 429 494 20,200 -1,920 Descending Washington Center
09:57AM 37.7944 -77.6731 26° Northeast 403 464 18,200 -1,800 Descending Washington Center
09:58AM 37.8892 -77.6206 24° Northeast 383 441 16,600 -1,920 Descending Washington Center
09:59AM 37.9797 -77.5650 26° Northeast 368 423 14,500 -1,920 Descending Washington Center
10:00AM 38.0808 -77.5094 23° Northeast 353 406 12,900 -2,040 Descending Washington Center
10:01AM 38.1544 -77.4667 25° Northeast 341 392 10,500 -2,040 Descending Washington Center
10:01AM 38.2239 -77.4181 29° Northeast 308 354 8,900 -1,800 Descending Washington Center
10:03AM 38.2892 -77.3825 23° Northeast 274 315 7,000 -1,860 Descending Washington Center
10:04AM 38.3642 -77.3792 North 260 299 5,200 -1,560 Descending Washington Center
10:04AM 38.4394 -77.3756 North 260 299 4,000 -660 Descending Washington Center
10:05AM 38.5125 -77.3719 North 260 299 4,000 -60 Level Washington Center
10:07AM 38.5856 -77.3686 North 260 299 3,900 -60 Descending Washington Center
10:08AM 38.6586 -77.3650 North 260 299 3,900  Level Washington Center
10:09AM 38.7500 -77.3667 359° North 264 304 4,000  Climbing Potomac TRACON
10:10AM 38.8333 -77.3500 North 263 303 4,000 -60 Level Potomac TRACON
10:11AM 38.9000 -77.3500 360° North 261 300 3,900 -540 Descending Potomac TRACON
10:12AM 38.9667 -77.3500 360° North 248 285 3,000 -900 Descending Potomac TRACON
10:13AM 39.0333 -77.3500 360° North 204 235 2,100 -900 Descending Potomac TRACON